createdAt,value
2022-11-26T00:02:22.849Z,95.67
2022-11-26T00:04:51.084Z,95.83
2022-11-26T00:07:22.662Z,95.63
2022-11-26T00:09:50.492Z,95.58
2022-11-26T00:12:19.572Z,95.51
2022-11-26T00:14:47.453Z,95.53
2022-11-26T00:17:15.620Z,95.34
2022-11-26T00:19:44.442Z,95.61
2022-11-26T00:22:29.598Z,95.72
2022-11-26T00:24:57.136Z,95.62
2022-11-26T00:27:28.377Z,95.74
2022-11-26T00:29:56.002Z,95.46
2022-11-26T00:32:26.627Z,95.63
2022-11-26T00:34:54.024Z,95.60
2022-11-26T00:37:38.599Z,95.79
2022-11-26T00:40:06.444Z,95.53
2022-11-26T00:42:33.411Z,95.72
2022-11-26T00:45:00.404Z,95.53
2022-11-26T00:47:27.254Z,95.41
2022-11-26T00:49:54.182Z,95.40
2022-11-26T00:52:28.756Z,95.57
2022-11-26T00:54:56.399Z,95.52
2022-11-26T00:57:23.454Z,95.66
2022-11-26T00:59:50.549Z,95.47
2022-11-26T01:02:17.534Z,95.73
2022-11-26T01:04:45.309Z,95.99
2022-11-26T01:07:12.307Z,96.03
2022-11-26T01:09:48.297Z,95.84
2022-11-26T01:12:15.694Z,95.79
2022-11-26T01:14:42.682Z,95.49
2022-11-26T01:17:12.724Z,95.56
2022-11-26T01:19:39.822Z,95.41
2022-11-26T01:22:06.683Z,95.30
2022-11-26T01:24:33.760Z,95.67
2022-11-26T01:27:00.703Z,95.55
2022-11-26T01:29:28.279Z,95.65
2022-11-26T01:31:55.368Z,95.48
2022-11-26T01:34:22.451Z,95.42
2022-11-26T01:36:49.322Z,95.27
2022-11-26T01:39:19.000Z,95.33
2022-11-26T01:42:07.780Z,95.39
2022-11-26T01:44:37.856Z,95.47
2022-11-26T01:47:29.520Z,95.91
2022-11-26T01:50:34.266Z,95.84
2022-11-26T01:53:14.561Z,95.96
2022-11-26T01:55:56.307Z,95.97
2022-11-26T01:58:29.296Z,95.84
2022-11-26T02:00:56.733Z,95.99
2022-11-26T02:03:24.890Z,95.79
2022-11-26T02:06:00.178Z,96.26
2022-11-26T02:08:30.300Z,96.02
2022-11-26T02:10:57.369Z,96.20
2022-11-26T02:13:25.594Z,96.44
2022-11-26T02:16:07.240Z,96.35
2022-11-26T02:18:41.484Z,96.20
2022-11-26T02:21:21.230Z,96.08
2022-11-26T02:24:12.852Z,96.05
2022-11-26T02:27:15.108Z,95.67
2022-11-26T02:30:02.608Z,95.68
2022-11-26T02:32:47.390Z,95.71
2022-11-26T02:35:26.583Z,95.77
2022-11-26T02:38:02.791Z,95.70
2022-11-26T02:40:29.894Z,95.53
2022-11-26T02:42:56.973Z,95.86
2022-11-26T02:45:28.904Z,95.87
2022-11-26T02:48:00.293Z,95.81
2022-11-26T02:50:45.950Z,95.56
2022-11-26T02:53:15.852Z,95.71
2022-11-26T02:55:47.837Z,95.83
2022-11-26T02:58:14.918Z,95.83
2022-11-26T03:00:43.475Z,95.74
2022-11-26T03:03:24.166Z,95.73
2022-11-26T03:05:55.888Z,95.82
2022-11-26T03:08:23.894Z,96.21
2022-11-26T03:10:50.889Z,95.94
2022-11-26T03:13:18.037Z,96.23
2022-11-26T03:15:44.955Z,96.00
2022-11-26T03:18:11.959Z,95.85
2022-11-26T03:20:38.988Z,96.02
2022-11-26T03:23:06.105Z,96.09
2022-11-26T03:25:33.698Z,95.93
2022-11-26T03:28:01.853Z,96.02
2022-11-26T03:30:28.797Z,95.71
2022-11-26T03:32:56.109Z,96.09
2022-11-26T03:35:23.476Z,95.97
2022-11-26T03:37:50.583Z,96.07
2022-11-26T03:40:17.892Z,95.90
2022-11-26T03:42:45.879Z,95.81
2022-11-26T03:45:13.164Z,95.90
2022-11-26T03:47:40.131Z,95.90
2022-11-26T03:50:07.939Z,96.13
2022-11-26T03:52:35.047Z,95.81
2022-11-26T03:55:01.854Z,96.14
2022-11-26T03:57:28.969Z,96.18
2022-11-26T03:59:55.892Z,95.99
2022-11-26T04:02:22.889Z,95.90
2022-11-26T04:04:50.863Z,95.78
2022-11-26T04:07:17.919Z,95.89
2022-11-26T04:09:44.923Z,96.09
2022-11-26T04:12:11.939Z,96.03
2022-11-26T04:14:39.084Z,95.88
2022-11-26T04:17:06.274Z,95.82
2022-11-26T04:19:33.327Z,95.98
2022-11-26T04:22:00.248Z,95.87
2022-11-26T04:24:27.250Z,96.07
2022-11-26T04:26:54.175Z,95.87
2022-11-26T04:29:21.085Z,96.09
2022-11-26T04:31:48.101Z,95.82
2022-11-26T04:34:15.089Z,95.94
2022-11-26T04:36:41.953Z,96.04
2022-11-26T04:39:08.949Z,95.93
2022-11-26T04:41:36.925Z,96.30
2022-11-26T04:44:04.465Z,96.36
2022-11-26T04:46:31.405Z,96.23
2022-11-26T04:48:58.340Z,96.48
2022-11-26T04:51:25.423Z,96.45
2022-11-26T04:53:55.605Z,96.45
2022-11-26T04:56:23.767Z,96.17
2022-11-26T04:58:50.707Z,96.33
2022-11-26T05:01:17.684Z,96.53
2022-11-26T05:03:44.765Z,96.71
2022-11-26T05:06:11.860Z,96.91
2022-11-26T05:08:38.767Z,96.70
2022-11-26T05:11:05.999Z,96.98
2022-11-26T05:13:32.884Z,96.75
2022-11-26T05:15:59.856Z,96.95
2022-11-26T05:18:26.926Z,97.00
2022-11-26T05:20:54.694Z,96.93
2022-11-26T05:23:21.544Z,96.75
2022-11-26T05:25:48.640Z,96.76
2022-11-26T05:28:15.649Z,96.70
2022-11-26T05:30:42.677Z,96.76
2022-11-26T05:33:09.784Z,97.02
2022-11-26T05:35:38.417Z,96.72
2022-11-26T05:38:05.388Z,96.95
2022-11-26T05:40:32.995Z,96.92
2022-11-26T05:42:59.943Z,96.96
2022-11-26T05:45:26.963Z,96.89
2022-11-26T05:47:53.845Z,96.92
2022-11-26T05:50:20.849Z,96.80
2022-11-26T05:52:53.334Z,96.75
2022-11-26T05:55:20.719Z,97.01
2022-11-26T05:57:47.760Z,97.03
2022-11-26T06:00:15.374Z,97.02
2022-11-26T06:02:42.565Z,96.99
2022-11-26T06:05:10.242Z,96.69
2022-11-26T06:07:40.507Z,96.67
2022-11-26T06:10:10.740Z,96.88
2022-11-26T06:12:37.738Z,96.78
2022-11-26T06:15:05.126Z,96.80
2022-11-26T06:17:32.020Z,96.91
2022-11-26T06:19:58.983Z,97.00
2022-11-26T06:22:25.918Z,97.03
2022-11-26T06:24:52.763Z,96.99
2022-11-26T06:27:19.755Z,96.69
2022-11-26T06:29:46.687Z,96.70
2022-11-26T06:32:13.575Z,96.96
2022-11-26T06:34:43.774Z,96.83
2022-11-26T06:37:11.832Z,96.40
2022-11-26T06:39:38.764Z,96.44
2022-11-26T06:42:05.807Z,96.61
2022-11-26T06:44:36.748Z,96.37
2022-11-26T06:47:04.368Z,96.63
2022-11-26T06:49:31.427Z,96.62
2022-11-26T06:51:58.383Z,96.51
2022-11-26T06:54:25.332Z,96.34
2022-11-26T06:56:52.503Z,96.50
2022-11-26T06:59:19.324Z,96.44
2022-11-26T07:01:46.555Z,96.34
2022-11-26T07:04:13.909Z,96.50
2022-11-26T07:06:42.284Z,96.46
2022-11-26T07:09:11.484Z,96.61
2022-11-26T07:11:39.883Z,96.71
2022-11-26T07:14:07.727Z,96.79
2022-11-26T07:16:35.486Z,96.70
2022-11-26T07:19:03.280Z,96.86
2022-11-26T07:21:30.925Z,96.79
2022-11-26T07:23:58.590Z,96.83
2022-11-26T07:26:25.598Z,96.96
2022-11-26T07:28:53.644Z,96.83
2022-11-26T07:31:23.305Z,96.92
2022-11-26T07:33:51.162Z,97.01
2022-11-26T07:36:21.758Z,96.94
2022-11-26T07:38:49.093Z,97.25
2022-11-26T07:41:19.300Z,97.12
2022-11-26T07:43:46.996Z,96.94
2022-11-26T07:46:18.218Z,97.24
2022-11-26T07:48:46.253Z,97.28
2022-11-26T07:51:28.206Z,97.41
2022-11-26T07:53:56.725Z,97.18
2022-11-26T07:56:23.725Z,97.25
2022-11-26T07:58:51.005Z,97.39
2022-11-26T08:01:21.112Z,97.30
2022-11-26T08:03:50.250Z,97.27
2022-11-26T08:06:25.484Z,97.02
2022-11-26T08:08:53.172Z,97.09
2022-11-26T08:11:26.398Z,97.28
2022-11-26T08:13:55.484Z,97.52
2022-11-26T08:16:22.484Z,97.25
2022-11-26T08:18:53.984Z,97.07
2022-11-26T08:21:22.764Z,96.93
2022-11-26T08:23:50.859Z,97.11
2022-11-26T08:26:25.263Z,96.85
2022-11-26T08:28:59.604Z,96.75
2022-11-26T08:31:28.316Z,97.01
2022-11-26T08:34:00.196Z,96.84
2022-11-26T08:36:32.270Z,97.05
2022-11-26T08:39:00.526Z,97.02
2022-11-26T08:41:27.593Z,96.69
2022-11-26T08:44:10.640Z,96.90
2022-11-26T08:46:39.377Z,96.67
2022-11-26T08:49:07.890Z,96.95
2022-11-26T08:51:34.911Z,96.80
2022-11-26T08:54:02.286Z,96.70
2022-11-26T08:56:29.324Z,96.65
2022-11-26T08:58:56.389Z,96.34
2022-11-26T09:01:30.521Z,96.25
2022-11-26T09:03:59.597Z,96.15
2022-11-26T09:06:29.563Z,96.32
2022-11-26T09:09:15.625Z,96.58
2022-11-26T09:11:44.662Z,96.35
2022-11-26T09:14:12.783Z,96.51
2022-11-26T09:16:41.577Z,96.31
2022-11-26T09:19:08.966Z,95.98
2022-11-26T09:21:36.589Z,96.25
2022-11-26T09:24:04.224Z,95.92
2022-11-26T09:26:32.668Z,95.90
2022-11-26T09:28:59.821Z,95.53
2022-11-26T09:31:27.322Z,95.48
2022-11-26T09:33:59.257Z,95.35
2022-11-26T09:36:27.119Z,95.35
2022-11-26T09:38:59.338Z,95.17
2022-11-26T09:41:44.633Z,94.75
2022-11-26T09:45:03.833Z,94.55
2022-11-26T09:47:39.801Z,94.44
2022-11-26T09:50:16.030Z,94.14
2022-11-26T09:53:17.148Z,93.94
2022-11-26T09:55:48.141Z,93.97
2022-11-26T09:58:33.537Z,93.88
2022-11-26T10:01:06.944Z,94.05
2022-11-26T10:03:37.192Z,93.94
2022-11-26T10:06:20.173Z,93.57
2022-11-26T10:09:18.076Z,93.24
2022-11-26T10:12:26.643Z,93.31
2022-11-26T10:15:02.044Z,93.00
2022-11-26T10:17:41.394Z,92.58
2022-11-26T10:20:26.298Z,92.53
2022-11-26T10:23:12.417Z,92.28
2022-11-26T10:26:18.525Z,92.16
2022-11-26T10:28:50.468Z,92.09
2022-11-26T10:31:27.455Z,92.07
2022-11-26T10:33:56.318Z,91.70
2022-11-26T10:36:33.299Z,91.44
2022-11-26T10:39:00.619Z,91.50
2022-11-26T10:41:31.274Z,90.88
2022-11-26T10:44:30.147Z,90.85
2022-11-26T10:46:58.353Z,90.70
2022-11-26T10:49:28.938Z,90.57
2022-11-26T10:52:08.348Z,90.70
2022-11-26T10:54:38.033Z,90.26
2022-11-26T10:57:11.168Z,89.70
2022-11-26T10:59:58.486Z,89.50
2022-11-26T11:02:41.479Z,89.37
2022-11-26T11:05:10.119Z,89.13
2022-11-26T11:07:37.180Z,88.78
2022-11-26T11:10:10.538Z,88.14
2022-11-26T11:12:42.412Z,87.83
2022-11-26T11:15:20.801Z,87.63
2022-11-26T11:17:56.580Z,87.33
2022-11-26T11:20:31.549Z,86.89
2022-11-26T11:23:16.831Z,86.69
2022-11-26T11:25:59.496Z,86.37
2022-11-26T11:28:30.088Z,85.82
2022-11-26T11:31:00.059Z,85.73
2022-11-26T11:33:28.825Z,85.48
2022-11-26T11:36:06.203Z,84.90
2022-11-26T11:38:49.129Z,84.56
2022-11-26T11:41:25.688Z,84.42
2022-11-26T11:44:04.208Z,84.09
2022-11-26T11:46:39.950Z,83.88
2022-11-26T11:49:34.734Z,83.79
2022-11-26T11:52:47.567Z,83.28
2022-11-26T11:55:32.812Z,82.96
2022-11-26T11:58:42.714Z,82.38
2022-11-26T12:01:15.817Z,82.37
2022-11-26T12:04:05.149Z,81.63
2022-11-26T12:07:19.501Z,80.73
2022-11-26T12:10:27.101Z,79.96
2022-11-26T12:13:00.260Z,79.14
2022-11-26T12:15:40.665Z,78.02
2022-11-26T12:18:24.459Z,77.11
2022-11-26T12:20:57.389Z,76.31
2022-11-26T12:23:31.958Z,75.77
2022-11-26T12:26:13.190Z,75.31
2022-11-26T12:28:58.885Z,75.34
2022-11-26T12:31:28.057Z,75.10
2022-11-26T12:34:07.103Z,74.78
2022-11-26T12:37:11.458Z,74.34
2022-11-26T12:39:57.620Z,73.93
2022-11-26T12:42:48.671Z,73.35
2022-11-26T12:45:42.191Z,73.19
2022-11-26T12:48:18.535Z,72.31
2022-11-26T12:50:55.166Z,71.45
2022-11-26T12:53:25.309Z,70.70
2022-11-26T12:56:04.750Z,70.06
2022-11-26T12:58:46.012Z,68.93
2022-11-26T13:01:13.318Z,67.77
2022-11-26T13:03:41.506Z,66.94
2022-11-26T13:06:52.461Z,64.81
2022-11-26T13:09:41.606Z,63.15
2022-11-26T13:12:22.610Z,62.79
2022-11-26T13:15:07.758Z,61.51
2022-11-26T13:17:43.366Z,60.57
2022-11-26T13:20:47.359Z,60.19
2022-11-26T13:23:32.670Z,60.47
2022-11-26T13:26:11.429Z,60.57
2022-11-26T13:29:16.305Z,61.00
2022-11-26T13:31:56.318Z,61.18
2022-11-26T13:34:38.652Z,60.84
2022-11-26T13:37:41.828Z,60.72
2022-11-26T13:40:14.811Z,60.29
2022-11-26T13:43:32.562Z,60.26
2022-11-26T13:46:24.156Z,61.07
2022-11-26T13:49:00.517Z,61.70
2022-11-26T13:51:45.789Z,62.01
2022-11-26T13:54:22.488Z,62.63
2022-11-26T13:56:55.958Z,62.64
2022-11-26T13:59:28.352Z,62.88
2022-11-26T14:01:56.866Z,62.65
2022-11-26T14:04:23.799Z,62.26
2022-11-26T14:07:06.829Z,62.32
2022-11-26T14:09:43.173Z,62.91
2022-11-26T14:12:17.988Z,63.91
2022-11-26T14:14:47.994Z,64.40
2022-11-26T14:17:22.963Z,63.97
2022-11-26T14:19:51.951Z,62.63
2022-11-26T14:22:21.899Z,61.71
2022-11-26T14:24:49.146Z,60.49
2022-11-26T14:27:20.436Z,59.77
2022-11-26T14:29:55.012Z,59.51
2022-11-26T14:32:24.788Z,59.51
2022-11-26T14:34:54.193Z,60.64
2022-11-26T14:37:25.068Z,62.61
2022-11-26T14:39:59.950Z,64.61
2022-11-26T14:42:28.835Z,66.23
2022-11-26T14:45:16.038Z,67.45
2022-11-26T14:47:50.277Z,68.38
2022-11-26T14:50:21.209Z,69.11
2022-11-26T14:52:59.238Z,69.80
2022-11-26T14:55:30.348Z,70.59
2022-11-26T14:58:09.183Z,71.24
2022-11-26T15:00:37.068Z,71.77
2022-11-26T15:03:04.586Z,72.25
2022-11-26T15:05:34.430Z,72.88
2022-11-26T15:08:02.648Z,73.63
2022-11-26T15:10:40.807Z,73.85
2022-11-26T15:13:26.507Z,74.19
2022-11-26T15:15:59.127Z,74.96
2022-11-26T15:18:30.801Z,75.13
2022-11-26T15:20:59.367Z,75.79
2022-11-26T15:23:35.591Z,75.87
2022-11-26T15:26:03.227Z,76.28
2022-11-26T15:28:38.089Z,76.65
2022-11-26T15:31:08.664Z,77.20
2022-11-26T15:33:37.731Z,77.71
2022-11-26T15:36:11.573Z,77.79
2022-11-26T15:39:06.537Z,78.11
2022-11-26T15:41:42.401Z,78.58
2022-11-26T15:44:42.931Z,78.78
2022-11-26T15:47:20.433Z,78.99
2022-11-26T15:49:52.236Z,79.39
2022-11-26T15:52:24.596Z,79.60
2022-11-26T15:55:18.845Z,79.72
2022-11-26T15:57:51.880Z,80.19
2022-11-26T16:00:27.686Z,80.22
2022-11-26T16:02:54.857Z,80.48
2022-11-26T16:05:38.964Z,80.63
2022-11-26T16:08:32.739Z,81.00
2022-11-26T16:11:05.713Z,81.19
2022-11-26T16:13:34.832Z,81.42
2022-11-26T16:16:04.690Z,81.85
2022-11-26T16:18:38.691Z,81.94
2022-11-26T16:21:27.820Z,81.97
2022-11-26T16:24:02.868Z,82.01
2022-11-26T16:26:30.769Z,82.52
2022-11-26T16:28:57.866Z,82.32
2022-11-26T16:31:24.899Z,82.67
2022-11-26T16:33:51.964Z,82.87
2022-11-26T16:36:26.496Z,82.95
2022-11-26T16:38:53.790Z,83.09
2022-11-26T16:41:22.621Z,83.22
2022-11-26T16:43:50.033Z,83.64
2022-11-26T16:46:23.767Z,83.60
2022-11-26T16:48:52.049Z,83.71
2022-11-26T16:51:20.120Z,83.87
2022-11-26T16:53:47.548Z,84.09
2022-11-26T16:56:33.171Z,84.26
2022-11-26T16:59:00.293Z,84.04
2022-11-26T17:01:27.395Z,84.32
2022-11-26T17:03:54.613Z,84.40
2022-11-26T17:06:41.746Z,84.52
2022-11-26T17:09:17.142Z,84.55
2022-11-26T17:11:44.383Z,84.55
2022-11-26T17:14:11.694Z,84.73
2022-11-26T17:16:45.357Z,84.71
2022-11-26T17:19:14.473Z,84.86
2022-11-26T17:21:42.876Z,84.81
2022-11-26T17:24:10.012Z,84.87
2022-11-26T17:26:37.033Z,84.54
2022-11-26T17:29:05.249Z,84.81
2022-11-26T17:31:32.298Z,85.19
2022-11-26T17:33:59.319Z,85.24
2022-11-26T17:36:26.413Z,85.10
2022-11-26T17:38:53.484Z,85.06
2022-11-26T17:41:20.516Z,85.39
2022-11-26T17:43:47.795Z,85.54
2022-11-26T17:46:22.298Z,85.35
2022-11-26T17:48:55.550Z,85.62
2022-11-26T17:51:25.419Z,85.39
2022-11-26T17:53:52.416Z,85.48
2022-11-26T17:56:22.266Z,85.92
2022-11-26T17:58:49.749Z,85.93
2022-11-26T18:01:18.098Z,85.98
2022-11-26T18:03:46.008Z,85.84
2022-11-26T18:06:47.239Z,85.96
2022-11-26T18:09:14.210Z,86.12
2022-11-26T18:11:50.624Z,86.27
2022-11-26T18:14:18.513Z,86.38
2022-11-26T18:16:45.687Z,86.72
2022-11-26T18:19:15.006Z,86.99
2022-11-26T18:21:43.176Z,87.40
2022-11-26T18:24:10.870Z,87.46
2022-11-26T18:26:38.234Z,87.60
2022-11-26T18:29:05.848Z,88.22
2022-11-26T18:31:39.129Z,88.37
2022-11-26T18:34:07.848Z,88.49
2022-11-26T18:36:35.075Z,88.54
2022-11-26T18:39:05.879Z,88.98
2022-11-26T18:41:34.428Z,89.32
2022-11-26T18:44:02.311Z,89.41
2022-11-26T18:46:29.737Z,89.59
2022-11-26T18:48:59.049Z,89.84
2022-11-26T18:51:26.698Z,90.30
2022-11-26T18:53:53.865Z,90.51
2022-11-26T18:56:23.472Z,90.91
2022-11-26T18:58:51.836Z,91.45
2022-11-26T19:01:29.452Z,91.56
2022-11-26T19:03:58.359Z,92.06
2022-11-26T19:06:31.181Z,92.18
2022-11-26T19:09:16.719Z,92.76
2022-11-26T19:11:45.370Z,92.80
2022-11-26T19:14:14.425Z,93.06
2022-11-26T19:16:43.973Z,93.42
2022-11-26T19:19:11.162Z,93.63
2022-11-26T19:21:38.505Z,93.51
2022-11-26T19:24:08.483Z,93.88
2022-11-26T19:26:37.715Z,93.91
2022-11-26T19:29:06.649Z,94.25
2022-11-26T19:31:37.930Z,94.39
2022-11-26T19:34:11.493Z,94.60
2022-11-26T19:36:38.788Z,94.65
2022-11-26T19:39:10.717Z,95.02
2022-11-26T19:41:37.954Z,95.16
2022-11-26T19:44:07.672Z,95.07
2022-11-26T19:46:37.561Z,95.05
2022-11-26T19:49:04.518Z,95.39
2022-11-26T19:51:31.951Z,95.20
2022-11-26T19:53:59.549Z,95.33
2022-11-26T19:56:29.809Z,95.69
2022-11-26T19:59:02.327Z,95.52
2022-11-26T20:01:32.782Z,95.69
2022-11-26T20:04:03.707Z,95.92
2022-11-26T20:06:32.738Z,96.27
2022-11-26T20:09:00.900Z,96.37
2022-11-26T20:11:29.608Z,96.29
2022-11-26T20:13:58.169Z,96.14
2022-11-26T20:16:28.433Z,96.35
2022-11-26T20:18:56.489Z,96.42
2022-11-26T20:21:26.249Z,96.30
2022-11-26T20:23:57.410Z,96.53
2022-11-26T20:26:29.898Z,96.60
2022-11-26T20:29:01.577Z,96.72
2022-11-26T20:31:29.593Z,96.94
2022-11-26T20:33:56.760Z,96.86
2022-11-26T20:36:24.227Z,97.12
2022-11-26T20:38:56.029Z,97.22
2022-11-26T20:41:24.758Z,97.30
2022-11-26T20:43:56.792Z,97.23
2022-11-26T20:46:26.882Z,97.71
2022-11-26T20:48:55.707Z,97.65
2022-11-26T20:51:23.560Z,97.73
2022-11-26T20:53:53.041Z,97.89
2022-11-26T20:56:22.293Z,98.06
2022-11-26T20:58:51.396Z,98.11
2022-11-26T21:01:28.596Z,98.00
2022-11-26T21:03:58.482Z,98.22
2022-11-26T21:06:30.767Z,98.07
2022-11-26T21:09:05.754Z,98.15
2022-11-26T21:11:33.071Z,98.27
2022-11-26T21:14:01.690Z,98.60
2022-11-26T21:16:30.366Z,98.84
2022-11-26T21:18:57.988Z,98.75
2022-11-26T21:21:26.359Z,98.81
2022-11-26T21:23:54.542Z,98.84
2022-11-26T21:26:24.804Z,98.82
2022-11-26T21:28:53.669Z,98.81
2022-11-26T21:31:21.657Z,98.98
2022-11-26T21:33:59.139Z,98.84
2022-11-26T21:36:26.862Z,98.82
2022-11-26T21:38:53.808Z,99.02
2022-11-26T21:41:21.829Z,99.36
2022-11-26T21:43:49.710Z,99.19
2022-11-26T21:46:23.748Z,99.25
2022-11-26T21:48:58.199Z,99.11
2022-11-26T21:51:27.769Z,99.25
2022-11-26T21:53:55.978Z,99.41
2022-11-26T21:56:31.521Z,99.22
2022-11-26T21:59:00.361Z,99.19
2022-11-26T22:01:33.301Z,99.30
2022-11-26T22:04:03.886Z,99.39
2022-11-26T22:06:30.971Z,99.50
2022-11-26T22:08:58.309Z,99.41
2022-11-26T22:11:31.372Z,99.63
2022-11-26T22:13:58.879Z,99.47
2022-11-26T22:16:27.580Z,99.89
2022-11-26T22:18:56.597Z,99.98
2022-11-26T22:21:39.310Z,99.78
2022-11-26T22:24:10.115Z,99.94
2022-11-26T22:26:37.770Z,100.00
2022-11-26T22:29:05.270Z,100.00
2022-11-26T22:31:36.076Z,100.00
2022-11-26T22:34:15.246Z,100.00
2022-11-26T22:36:44.049Z,100.00
2022-11-26T22:39:13.506Z,100.00
2022-11-26T22:41:41.587Z,99.87
2022-11-26T22:44:09.458Z,99.78
2022-11-26T22:46:38.578Z,99.87
2022-11-26T22:49:07.062Z,100.00
2022-11-26T22:51:35.658Z,100.00
2022-11-26T22:54:05.168Z,100.00
2022-11-26T22:56:32.428Z,100.00
2022-11-26T22:59:01.736Z,100.00
2022-11-26T23:01:31.654Z,100.00
2022-11-26T23:04:01.343Z,100.00
2022-11-26T23:06:31.137Z,100.00
2022-11-26T23:08:59.371Z,100.00
2022-11-26T23:11:32.853Z,100.00
2022-11-26T23:14:02.203Z,100.00
2022-11-26T23:16:29.522Z,100.00
2022-11-26T23:18:57.860Z,100.00
2022-11-26T23:21:26.447Z,100.00
2022-11-26T23:23:54.461Z,100.00
2022-11-26T23:26:27.432Z,100.00
2022-11-26T23:28:56.081Z,100.00
2022-11-26T23:31:26.264Z,100.00
2022-11-26T23:33:54.041Z,100.00
2022-11-26T23:36:21.836Z,100.00
2022-11-26T23:38:49.007Z,100.00
2022-11-26T23:41:16.891Z,100.00
2022-11-26T23:43:44.381Z,100.00
2022-11-26T23:46:14.633Z,100.00
2022-11-26T23:48:43.564Z,100.00
2022-11-26T23:51:20.703Z,100.00
2022-11-26T23:53:48.851Z,100.00
2022-11-26T23:56:19.010Z,100.00
2022-11-26T23:58:50.071Z,100.00
